Time;durP1;ratioP1;P1;durP2;ratioP2;P2;SDS_P1;SDS_P2;PMS_P1;PMS_P2;Temp;Humidity;BMP_temperature;BMP_pressure;BME280_temperature;BME280_humidity;BME280_pressure;Samples;Min_cycle;Max_cycle;Signal;HPM_P1;HPM_P2
2021/12/31 00:01:19;;;;;;;2.20;0.97;;;13.10;99.90;;;;;;5082589;28;20489;-71
2021/12/31 00:04:06;;;;;;;0.40;0.40;;;13.00;99.90;;;;;;5093888;28;20522;-71
2021/12/31 00:06:53;;;;;;;0.40;0.40;;;13.00;99.90;;;;;;5094815;28;20434;-71
2021/12/31 00:09:40;;;;;;;1.13;1.13;;;13.00;99.90;;;;;;5094355;28;21023;-71
2021/12/31 00:12:27;;;;;;;0.97;0.80;;;13.10;99.90;;;;;;5095242;28;20445;-71
2021/12/31 00:15:14;;;;;;;0.40;0.40;;;13.00;99.90;;;;;;5095070;28;20477;-70
2021/12/31 00:18:03;;;;;;;0.50;0.50;;;13.00;99.90;;;;;;5095699;28;20419;-70
2021/12/31 00:20:50;;;;;;;4.30;1.37;;;13.20;99.90;;;;;;5094602;28;20516;-71
2021/12/31 00:23:37;;;;;;;0.80;0.80;;;13.10;99.90;;;;;;5093832;28;20446;-72
2021/12/31 00:26:23;;;;;;;0.83;0.80;;;13.10;99.90;;;;;;5094385;28;20955;-71
2021/12/31 00:29:10;;;;;;;0.40;0.40;;;13.10;99.90;;;;;;5093763;28;20471;-71
2021/12/31 00:31:57;;;;;;;0.40;0.40;;;13.00;99.90;;;;;;5093688;28;20425;-71
2021/12/31 00:34:45;;;;;;;1.60;0.70;;;13.00;99.90;;;;;;5093706;28;20446;-72
2021/12/31 00:37:35;;;;;;;0.70;0.70;;;13.20;99.90;;;;;;5094279;28;20418;-70
2021/12/31 00:40:22;;;;;;;1.70;1.43;;;13.00;99.90;;;;;;5094853;28;20458;-71
2021/12/31 00:43:10;;;;;;;0.50;0.50;;;13.00;99.90;;;;;;5098190;28;20531;-71
2021/12/31 00:45:58;;;;;;;0.40;0.40;;;13.00;99.90;;;;;;5098098;28;20433;-71
2021/12/31 00:48:45;;;;;;;0.50;0.50;;;13.00;99.90;;;;;;5097628;28;20438;-70
2021/12/31 00:51:33;;;;;;;0.40;0.40;;;12.90;99.90;;;;;;5097620;28;20446;-72
2021/12/31 00:54:20;;;;;;;0.50;0.50;;;12.90;99.90;;;;;;5097640;28;20434;-72
2021/12/31 00:57:07;;;;;;;0.53;0.53;;;12.90;99.90;;;;;;5097946;28;20505;-71
2021/12/31 00:59:54;;;;;;;1.00;0.80;;;13.00;99.90;;;;;;5096437;28;20854;-70
2021/12/31 01:02:43;;;;;;;0.40;0.40;;;13.00;99.90;;;;;;5077695;28;20415;-70
2021/12/31 01:05:30;;;;;;;0.40;0.40;;;13.00;99.90;;;;;;5076277;28;20934;-71
2021/12/31 01:08:18;;;;;;;1.47;1.37;;;13.10;99.90;;;;;;5076595;28;20516;-71
2021/12/31 01:11:05;;;;;;;0.40;0.40;;;13.00;99.90;;;;;;5077035;28;20480;-71
2021/12/31 01:13:56;;;;;;;2.47;2.30;;;13.00;99.90;;;;;;5076008;28;20496;-70
2021/12/31 01:16:49;;;;;;;2.30;1.00;;;13.10;99.90;;;;;;5076363;28;20430;-72
2021/12/31 01:19:47;;;;;;;0.90;0.90;;;13.10;99.90;;;;;;5075278;28;20427;-71
2021/12/31 01:22:34;;;;;;;3.37;2.10;;;13.10;99.90;;;;;;5075979;28;20449;-71
2021/12/31 01:25:23;;;;;;;0.83;0.73;;;13.10;99.90;;;;;;5076155;28;20461;-70
2021/12/31 01:28:10;;;;;;;0.80;0.80;;;13.10;99.90;;;;;;5077138;28;20423;-69
2021/12/31 01:30:56;;;;;;;1.90;0.87;;;13.10;99.90;;;;;;5076332;28;20415;-71
2021/12/31 01:33:43;;;;;;;0.40;0.40;;;13.20;99.90;;;;;;5075907;28;20439;-71
2021/12/31 01:36:30;;;;;;;1.30;1.00;;;12.90;99.90;;;;;;5075949;28;20427;-71
2021/12/31 01:39:17;;;;;;;0.40;0.40;;;13.00;99.90;;;;;;5075504;28;20943;-72
2021/12/31 01:42:08;;;;;;;0.50;0.50;;;12.90;99.90;;;;;;5075537;28;20473;-71
2021/12/31 01:44:58;;;;;;;0.40;0.40;;;13.00;99.90;;;;;;5077126;28;20522;-72
2021/12/31 01:47:58;;;;;;;0.40;0.40;;;13.00;99.90;;;;;;5076440;28;20769;-72
2021/12/31 01:50:45;;;;;;;0.63;0.53;;;13.10;99.90;;;;;;5076537;28;20972;-71
2021/12/31 01:53:33;;;;;;;0.83;0.83;;;13.10;99.90;;;;;;5075662;28;20839;-71
2021/12/31 01:56:21;;;;;;;1.07;0.77;;;13.20;99.90;;;;;;5076874;28;20434;-70
2021/12/31 01:59:11;;;;;;;0.70;0.70;;;13.10;99.90;;;;;;5076033;28;20419;-72
2021/12/31 02:02:00;;;;;;;1.47;0.93;;;13.20;99.90;;;;;;5090248;28;20477;-71
2021/12/31 02:04:47;;;;;;;1.60;1.33;;;13.30;99.90;;;;;;5094952;28;20462;-71
2021/12/31 02:07:34;;;;;;;0.80;0.60;;;13.30;99.90;;;;;;5096034;28;20488;-72
2021/12/31 02:10:22;;;;;;;2.30;2.10;;;13.20;99.90;;;;;;5090020;28;20980;-71
2021/12/31 02:13:09;;;;;;;0.50;0.50;;;13.20;99.90;;;;;;5094637;28;20450;-71
2021/12/31 02:15:58;;;;;;;0.70;0.70;;;13.20;99.90;;;;;;5096734;28;20444;-72
2021/12/31 02:18:45;;;;;;;0.70;0.70;;;13.20;99.90;;;;;;5096498;28;20433;-71
2021/12/31 02:21:33;;;;;;;1.40;1.30;;;13.30;99.90;;;;;;5096060;28;20844;-71
2021/12/31 02:24:21;;;;;;;1.93;1.00;;;13.20;99.90;;;;;;5096288;28;20442;-72
2021/12/31 02:27:08;;;;;;;1.60;0.70;;;13.20;99.90;;;;;;5095789;28;20831;-72
2021/12/31 02:29:55;;;;;;;0.90;0.60;;;13.20;99.90;;;;;;5095338;28;20836;-72
2021/12/31 02:32:43;;;;;;;0.97;0.73;;;13.20;99.90;;;;;;5095989;28;20442;-71
2021/12/31 02:35:30;;;;;;;1.13;1.03;;;13.20;99.90;;;;;;5096324;28;20810;-70
2021/12/31 02:38:19;;;;;;;0.50;0.50;;;13.20;99.90;;;;;;5096272;28;21015;-70
2021/12/31 02:41:05;;;;;;;34.70;2.50;;;13.20;99.90;;;;;;5096074;28;20454;-71
2021/12/31 02:43:52;;;;;;;0.77;0.77;;;13.10;99.90;;;;;;5095661;28;20437;-70
2021/12/31 02:46:39;;;;;;;0.40;0.40;;;13.00;99.90;;;;;;5095725;28;20995;-72
2021/12/31 02:49:29;;;;;;;1.00;1.00;;;12.90;99.90;;;;;;5095882;28;20418;-71
2021/12/31 02:52:18;;;;;;;1.90;1.80;;;13.00;99.90;;;;;;5095737;28;20447;-71
2021/12/31 02:55:07;;;;;;;0.40;0.40;;;12.90;99.90;;;;;;5095271;28;20452;-72
2021/12/31 02:57:54;;;;;;;0.83;0.83;;;12.90;99.90;;;;;;5092861;28;20422;-72
2021/12/31 03:00:43;;;;;;;7.10;1.93;;;12.90;99.90;;;;;;5089041;28;20463;-71
2021/12/31 03:03:31;;;;;;;0.80;0.80;;;13.00;99.90;;;;;;5072084;28;20462;-71
2021/12/31 03:06:18;;;;;;;0.50;0.50;;;13.00;99.90;;;;;;5077882;28;20950;-72
2021/12/31 03:09:05;;;;;;;0.70;0.70;;;12.90;99.90;;;;;;5075569;28;20426;-72
2021/12/31 03:11:57;;;;;;;0.60;0.60;;;12.90;99.90;;;;;;5072538;28;20426;-71
2021/12/31 03:14:46;;;;;;;0.40;0.40;;;12.90;99.90;;;;;;5075591;28;20454;-71
2021/12/31 03:17:34;;;;;;;2.83;1.73;;;12.90;99.90;;;;;;5074181;28;20456;-71
2021/12/31 03:20:36;;;;;;;0.60;0.60;;;13.00;99.90;;;;;;5074365;28;20419;-71
2021/12/31 03:23:23;;;;;;;0.50;0.50;;;12.90;99.90;;;;;;5074121;28;20438;-72
2021/12/31 03:26:09;;;;;;;0.40;0.40;;;13.00;99.90;;;;;;5075218;28;20431;-70
2021/12/31 03:28:58;;;;;;;1.53;1.43;;;12.90;99.90;;;;;;5072799;28;20530;-70
2021/12/31 03:31:45;;;;;;;0.40;0.40;;;13.00;99.90;;;;;;5072142;28;20430;-72
2021/12/31 03:34:32;;;;;;;0.40;0.40;;;12.80;99.90;;;;;;5072196;28;20450;-71
2021/12/31 03:37:19;;;;;;;0.40;0.40;;;12.90;99.90;;;;;;5074820;28;20427;-70
2021/12/31 03:40:07;;;;;;;0.40;0.40;;;12.60;99.90;;;;;;5072413;28;20427;-73
2021/12/31 03:42:54;;;;;;;0.40;0.40;;;12.60;99.90;;;;;;5072629;28;20478;-70
2021/12/31 03:45:44;;;;;;;0.73;0.73;;;12.50;99.90;;;;;;5072576;28;20633;-71
2021/12/31 03:48:31;;;;;;;0.40;0.40;;;12.40;99.90;;;;;;5074095;28;20429;-71
2021/12/31 03:51:18;;;;;;;0.40;0.40;;;12.40;99.90;;;;;;5073973;28;20560;-72
2021/12/31 03:54:05;;;;;;;0.60;0.60;;;12.40;99.90;;;;;;5076381;28;20451;-71
2021/12/31 03:56:52;;;;;;;0.53;0.53;;;12.50;99.90;;;;;;5076182;28;20418;-73
2021/12/31 03:59:39;;;;;;;0.40;0.40;;;12.60;99.90;;;;;;5076308;28;20500;-73
2021/12/31 04:02:27;;;;;;;0.60;0.60;;;12.70;99.90;;;;;;5075893;28;20463;-71
2021/12/31 04:05:14;;;;;;;0.47;0.47;;;12.80;99.90;;;;;;5074658;28;20423;-72
2021/12/31 04:08:01;;;;;;;1.77;1.67;;;12.70;99.90;;;;;;5074503;28;20437;-73
2021/12/31 04:10:48;;;;;;;0.70;0.67;;;12.80;99.90;;;;;;5074634;28;20427;-71
2021/12/31 04:13:35;;;;;;;1.33;1.33;;;12.70;99.90;;;;;;5075724;28;20447;-73
2021/12/31 04:16:22;;;;;;;0.73;0.73;;;12.70;99.90;;;;;;5080129;28;20434;-73
2021/12/31 04:19:10;;;;;;;0.40;0.40;;;12.70;99.90;;;;;;5079226;28;20859;-72
2021/12/31 04:21:57;;;;;;;0.40;0.40;;;12.70;99.90;;;;;;5096928;28;20466;-72
2021/12/31 04:24:53;;;;;;;0.40;0.40;;;12.70;99.90;;;;;;5099895;28;20446;-72
2021/12/31 04:27:40;;;;;;;0.77;0.50;;;12.80;99.90;;;;;;5099662;28;20514;-73
2021/12/31 04:30:27;;;;;;;1.43;0.83;;;12.80;99.90;;;;;;5100835;28;20419;-72
2021/12/31 04:33:14;;;;;;;0.40;0.40;;;12.90;99.90;;;;;;5100501;28;20438;-72
2021/12/31 04:36:02;;;;;;;3.60;1.43;;;13.00;99.90;;;;;;5099702;28;20422;-74
2021/12/31 04:38:49;;;;;;;0.80;0.80;;;13.00;99.90;;;;;;5100013;28;20430;-71
2021/12/31 04:41:36;;;;;;;0.40;0.40;;;13.00;99.90;;;;;;5099759;28;20466;-73
2021/12/31 04:44:23;;;;;;;0.40;0.40;;;13.00;99.90;;;;;;5099435;28;20515;-74
2021/12/31 04:47:10;;;;;;;0.70;0.70;;;13.00;99.90;;;;;;5099364;28;20422;-72
2021/12/31 04:49:56;;;;;;;0.40;0.40;;;13.10;99.90;;;;;;5099599;28;20446;-72
2021/12/31 04:52:46;;;;;;;0.70;0.70;;;13.00;99.90;;;;;;5098960;28;20472;-71
2021/12/31 04:55:33;;;;;;;0.57;0.57;;;13.00;99.90;;;;;;5100573;28;20419;-74
2021/12/31 04:58:19;;;;;;;1.10;1.10;;;13.10;99.90;;;;;;5099831;28;20431;-71
2021/12/31 05:01:06;;;;;;;0.40;0.40;;;13.10;99.90;;;;;;5092398;28;20805;-71
2021/12/31 05:03:53;;;;;;;0.40;0.40;;;13.20;99.90;;;;;;5078702;28;20463;-74
2021/12/31 05:06:40;;;;;;;0.40;0.40;;;13.10;99.90;;;;;;5078791;28;20423;-72
2021/12/31 05:09:28;;;;;;;0.80;0.70;;;13.20;99.90;;;;;;5079381;28;20431;-73
2021/12/31 05:12:22;;;;;;;0.47;0.40;;;13.20;99.90;;;;;;5078452;28;20845;-72
2021/12/31 05:15:10;;;;;;;0.50;0.50;;;13.30;99.90;;;;;;5079033;28;20581;-72
2021/12/31 05:17:57;;;;;;;1.70;1.03;;;13.30;99.90;;;;;;5079147;28;20430;-70
2021/12/31 05:20:44;;;;;;;0.83;0.83;;;13.30;99.90;;;;;;5078418;28;20438;-72
2021/12/31 05:23:31;;;;;;;0.60;0.60;;;13.30;99.90;;;;;;5078960;28;20443;-72
2021/12/31 05:26:19;;;;;;;0.60;0.60;;;13.30;99.90;;;;;;5077879;28;20423;-75
2021/12/31 05:29:06;;;;;;;2.87;1.13;;;13.30;99.90;;;;;;5078307;28;20430;-71
2021/12/31 05:31:53;;;;;;;0.60;0.60;;;13.30;99.90;;;;;;5077675;28;20423;-72
2021/12/31 05:34:40;;;;;;;1.43;0.67;;;13.30;99.90;;;;;;5078165;28;20989;-72
2021/12/31 05:37:27;;;;;;;0.63;0.60;;;13.30;99.90;;;;;;5078789;28;20423;-72
2021/12/31 05:40:13;;;;;;;0.97;0.63;;;13.30;99.90;;;;;;5079148;28;20472;-74
2021/12/31 05:43:02;;;;;;;1.23;1.13;;;13.30;99.90;;;;;;5079084;28;20474;-72
2021/12/31 05:45:49;;;;;;;0.40;0.40;;;13.30;99.90;;;;;;5078482;28;20451;-72
2021/12/31 05:48:36;;;;;;;1.10;0.80;;;13.30;99.90;;;;;;5078073;28;20962;-71
2021/12/31 05:51:26;;;;;;;0.50;0.50;;;13.30;99.90;;;;;;5078134;28;20427;-71
2021/12/31 05:54:12;;;;;;;0.40;0.40;;;13.20;99.90;;;;;;5078203;28;20951;-74
2021/12/31 05:56:59;;;;;;;0.60;0.60;;;13.20;99.90;;;;;;5078678;28;20454;-72
2021/12/31 05:59:47;;;;;;;0.70;0.70;;;13.30;99.90;;;;;;5077851;28;20997;-72
2021/12/31 06:02:35;;;;;;;0.40;0.40;;;13.30;99.90;;;;;;5098318;28;20462;-72
2021/12/31 06:05:23;;;;;;;0.40;0.40;;;13.30;99.90;;;;;;5099167;28;20415;-72
2021/12/31 06:08:10;;;;;;;0.80;0.70;;;13.30;99.90;;;;;;5097956;28;20431;-72
2021/12/31 06:10:57;;;;;;;1.37;1.27;;;13.30;99.90;;;;;;5098148;28;20476;-69
2021/12/31 06:13:49;;;;;;;0.40;0.40;;;13.30;99.90;;;;;;5098579;28;20446;-71
2021/12/31 06:16:42;;;;;;;0.60;0.60;;;13.20;99.90;;;;;;5097677;28;20420;-72
2021/12/31 06:19:29;;;;;;;0.90;0.90;;;13.10;99.90;;;;;;5097564;28;20511;-70
2021/12/31 06:22:16;;;;;;;0.77;0.77;;;13.20;99.90;;;;;;5098101;28;20461;-71
2021/12/31 06:25:03;;;;;;;0.60;0.60;;;13.20;99.90;;;;;;5098093;28;20498;-71
2021/12/31 06:27:50;;;;;;;0.50;0.50;;;13.20;99.90;;;;;;5099540;28;20434;-73
2021/12/31 06:30:37;;;;;;;0.77;0.77;;;13.20;99.90;;;;;;5097035;28;20783;-72
2021/12/31 06:33:25;;;;;;;0.40;0.40;;;13.10;99.90;;;;;;5097210;28;20438;-73
2021/12/31 06:36:12;;;;;;;0.73;0.70;;;13.20;99.90;;;;;;5097527;28;20926;-73
2021/12/31 06:39:02;;;;;;;0.40;0.40;;;13.30;99.90;;;;;;5097112;28;20468;-73
2021/12/31 06:41:49;;;;;;;0.40;0.40;;;13.10;99.90;;;;;;5097572;28;20451;-72
2021/12/31 06:44:36;;;;;;;1.47;1.37;;;13.10;99.90;;;;;;5097185;28;21023;-72
2021/12/31 06:47:23;;;;;;;0.40;0.40;;;13.10;99.90;;;;;;5098027;28;20422;-72
2021/12/31 06:50:11;;;;;;;0.40;0.40;;;13.20;99.90;;;;;;5096879;28;20483;-72
2021/12/31 06:53:01;;;;;;;0.40;0.40;;;13.30;99.90;;;;;;5097877;28;20461;-73
2021/12/31 06:55:48;;;;;;;0.50;0.50;;;13.20;99.90;;;;;;5097611;28;20444;-72
2021/12/31 06:58:35;;;;;;;0.80;0.77;;;13.10;99.90;;;;;;5097230;28;20425;-72
2021/12/31 07:01:22;;;;;;;0.50;0.50;;;13.10;99.90;;;;;;5097862;28;20948;-71
2021/12/31 07:04:09;;;;;;;0.40;0.40;;;13.20;99.90;;;;;;5098077;28;20519;-71
2021/12/31 07:06:57;;;;;;;0.50;0.50;;;13.30;99.90;;;;;;5097482;28;20422;-73
2021/12/31 07:09:44;;;;;;;1.43;1.00;;;13.20;99.90;;;;;;5097913;28;20496;-72
2021/12/31 07:12:31;;;;;;;0.40;0.40;;;13.20;99.90;;;;;;5097414;28;20448;-72
2021/12/31 07:15:17;;;;;;;4.00;1.93;;;13.20;99.90;;;;;;5097318;28;20938;-71
2021/12/31 07:18:04;;;;;;;0.80;0.80;;;13.20;99.90;;;;;;5097348;28;20418;-72
2021/12/31 07:20:52;;;;;;;1.10;0.83;;;13.30;99.90;;;;;;5096537;28;20456;-71
2021/12/31 07:23:40;;;;;;;0.70;0.70;;;13.20;99.90;;;;;;5098768;28;20461;-75
2021/12/31 07:26:27;;;;;;;0.40;0.40;;;13.20;99.90;;;;;;5097533;28;20419;-72
2021/12/31 07:29:14;;;;;;;0.70;0.70;;;13.20;99.90;;;;;;5095801;28;20912;-71
2021/12/31 07:32:01;;;;;;;0.57;0.57;;;13.20;99.90;;;;;;5094103;28;20418;-71
2021/12/31 07:34:48;;;;;;;1.43;1.33;;;13.20;99.90;;;;;;5094631;28;20457;-73
2021/12/31 07:37:37;;;;;;;0.40;0.40;;;13.20;99.90;;;;;;5096145;28;20738;-73
2021/12/31 07:40:28;;;;;;;0.60;0.53;;;13.30;99.90;;;;;;5095887;28;20414;-73
2021/12/31 07:43:16;;;;;;;0.40;0.40;;;13.30;99.90;;;;;;5096442;28;20478;-72
2021/12/31 07:46:03;;;;;;;2.77;1.13;;;13.30;99.90;;;;;;5095866;28;20772;-73
2021/12/31 07:48:50;;;;;;;1.10;1.00;;;13.30;99.90;;;;;;5095930;28;20422;-72
2021/12/31 07:51:37;;;;;;;0.40;0.40;;;13.40;99.90;;;;;;5097834;28;20479;-70
2021/12/31 07:54:23;;;;;;;0.50;0.50;;;13.40;99.90;;;;;;5096379;28;20431;-73
2021/12/31 07:57:12;;;;;;;1.70;1.60;;;13.40;99.90;;;;;;5096694;28;20449;-74
2021/12/31 07:59:59;;;;;;;0.83;0.83;;;13.40;99.90;;;;;;5096876;28;20423;-72
2021/12/31 08:02:46;;;;;;;0.50;0.50;;;13.50;99.90;;;;;;5076496;28;20459;-72
2021/12/31 08:05:33;;;;;;;0.70;0.50;;;13.40;99.90;;;;;;5075378;28;20837;-73
2021/12/31 08:08:20;;;;;;;1.13;0.87;;;13.50;99.90;;;;;;5076368;28;20427;-73
2021/12/31 08:11:07;;;;;;;0.40;0.40;;;13.50;99.90;;;;;;5074802;28;21001;-74
2021/12/31 08:13:56;;;;;;;0.40;0.40;;;13.60;99.90;;;;;;5075275;28;20439;-73
2021/12/31 08:16:43;;;;;;;0.97;0.93;;;13.50;99.90;;;;;;5075096;28;20430;-73
2021/12/31 08:19:30;;;;;;;0.40;0.40;;;13.60;99.90;;;;;;5074442;28;20453;-72
2021/12/31 08:22:16;;;;;;;0.40;0.40;;;13.60;99.90;;;;;;5075255;28;20487;-72
2021/12/31 08:25:04;;;;;;;0.60;0.60;;;13.70;99.90;;;;;;5075817;28;20473;-73
2021/12/31 08:27:51;;;;;;;0.40;0.40;;;13.60;99.90;;;;;;5076364;28;20438;-71
2021/12/31 08:30:39;;;;;;;1.27;1.03;;;13.60;99.90;;;;;;5075421;28;20427;-72
2021/12/31 08:33:27;;;;;;;0.50;0.50;;;13.60;99.90;;;;;;5074967;28;20969;-72
2021/12/31 08:36:14;;;;;;;0.40;0.40;;;13.60;99.90;;;;;;5077319;28;20437;-74
2021/12/31 08:39:01;;;;;;;0.90;0.90;;;13.60;99.90;;;;;;5074280;28;20431;-73
2021/12/31 08:41:48;;;;;;;0.83;0.83;;;13.60;99.90;;;;;;5075297;28;20442;-73
2021/12/31 08:44:35;;;;;;;0.40;0.40;;;13.60;99.90;;;;;;5074743;28;20474;-73
2021/12/31 08:47:23;;;;;;;1.90;0.73;;;13.70;99.90;;;;;;5075035;28;20423;-71
2021/12/31 08:50:10;;;;;;;0.47;0.47;;;13.70;99.90;;;;;;5073798;28;20936;-76
2021/12/31 08:52:57;;;;;;;0.47;0.47;;;13.70;99.90;;;;;;5074890;28;20449;-73
2021/12/31 08:55:44;;;;;;;0.40;0.40;;;13.70;99.90;;;;;;5073399;28;20430;-73
2021/12/31 08:58:31;;;;;;;0.40;0.40;;;13.70;99.90;;;;;;5071607;28;20720;-73
2021/12/31 09:01:19;;;;;;;0.90;0.90;;;13.70;99.90;;;;;;5083931;28;20426;-75
2021/12/31 09:04:07;;;;;;;0.40;0.40;;;13.80;99.90;;;;;;5124911;22;20473;-71
2021/12/31 09:06:54;;;;;;;0.60;0.60;;;13.70;99.90;;;;;;5112181;28;20448;-71
2021/12/31 09:09:41;;;;;;;0.40;0.40;;;13.80;99.90;;;;;;5112265;28;20426;-71
2021/12/31 09:12:27;;;;;;;0.40;0.40;;;13.70;99.90;;;;;;5113689;28;20460;-72
2021/12/31 09:15:15;;;;;;;0.87;0.87;;;13.80;99.90;;;;;;5115569;28;20446;-71
2021/12/31 09:18:02;;;;;;;0.40;0.40;;;13.80;99.90;;;;;;5116865;28;20436;-72
2021/12/31 09:20:52;;;;;;;0.63;0.63;;;13.80;99.90;;;;;;5115336;28;20430;-72
2021/12/31 09:23:39;;;;;;;0.40;0.30;;;13.80;99.90;;;;;;5115628;28;20473;-72
2021/12/31 09:26:26;;;;;;;0.40;0.40;;;13.90;99.90;;;;;;5116263;28;20418;-72
2021/12/31 09:29:16;;;;;;;0.60;0.60;;;13.80;99.90;;;;;;5115696;28;20429;-72
2021/12/31 09:32:04;;;;;;;0.47;0.47;;;13.80;99.90;;;;;;5115700;28;20429;-71
2021/12/31 09:34:51;;;;;;;0.40;0.40;;;13.80;99.90;;;;;;5115615;28;20430;-72
2021/12/31 09:37:40;;;;;;;0.40;0.40;;;13.70;99.90;;;;;;5115169;28;20430;-72
2021/12/31 09:40:27;;;;;;;0.40;0.40;;;13.80;99.90;;;;;;5113465;28;20518;-72
2021/12/31 09:43:14;;;;;;;0.40;0.40;;;13.90;99.90;;;;;;5108585;28;20465;-72
2021/12/31 09:46:01;;;;;;;0.40;0.40;;;13.90;99.90;;;;;;5103969;28;20472;-72
2021/12/31 09:48:48;;;;;;;0.40;0.40;;;13.90;99.90;;;;;;5098130;28;20430;-72
2021/12/31 09:51:35;;;;;;;0.40;0.40;;;13.90;99.90;;;;;;5095881;28;20426;-72
2021/12/31 09:54:24;;;;;;;0.40;0.40;;;14.00;99.90;;;;;;5096151;28;20445;-72
2021/12/31 09:57:14;;;;;;;0.40;0.40;;;14.10;99.90;;;;;;5096160;28;20942;-72
2021/12/31 10:00:03;;;;;;;0.40;0.30;;;14.10;99.90;;;;;;5095281;28;20426;-72
2021/12/31 10:03:09;;;;;;;0.70;0.50;;;14.20;99.90;;;;;;5075901;28;20455;-71
2021/12/31 10:05:58;;;;;;;0.40;0.40;;;14.20;99.90;;;;;;5079464;28;20942;-72
2021/12/31 10:08:46;;;;;;;0.40;0.40;;;14.20;99.90;;;;;;5094900;28;20434;-72
2021/12/31 10:11:34;;;;;;;0.40;0.40;;;14.20;99.90;;;;;;5094629;28;20483;-72
2021/12/31 10:14:33;;;;;;;0.40;0.40;;;14.10;99.90;;;;;;5094926;28;20497;-72
2021/12/31 10:17:34;;;;;;;0.60;0.40;;;14.20;99.90;;;;;;5095522;28;20422;-72
2021/12/31 10:20:22;;;;;;;0.40;0.40;;;14.20;99.90;;;;;;5095531;28;20521;-72
2021/12/31 10:23:14;;;;;;;0.40;0.40;;;14.20;99.90;;;;;;5096346;28;20462;-72
2021/12/31 10:26:09;;;;;;;0.40;0.40;;;14.10;99.90;;;;;;5096241;28;20972;-71
2021/12/31 10:28:59;;;;;;;0.40;0.40;;;14.10;99.90;;;;;;5096625;28;20430;-71
2021/12/31 10:31:48;;;;;;;0.40;0.40;;;14.10;99.90;;;;;;5095426;28;20423;-72
2021/12/31 10:34:37;;;;;;;0.50;0.50;;;14.00;99.90;;;;;;5093649;28;20465;-72
2021/12/31 10:37:26;;;;;;;0.53;0.53;;;13.90;99.90;;;;;;5093745;28;20451;-72
2021/12/31 10:40:25;;;;;;;0.40;0.40;;;14.00;99.90;;;;;;5094061;28;20785;-71
2021/12/31 10:43:16;;;;;;;0.40;0.40;;;13.90;99.90;;;;;;5093812;28;20465;-72
2021/12/31 10:46:07;;;;;;;0.40;0.40;;;13.90;99.90;;;;;;5094061;28;20414;-72
2021/12/31 10:48:56;;;;;;;0.40;0.40;;;13.90;99.90;;;;;;5093825;28;20419;-72
2021/12/31 10:51:46;;;;;;;0.40;0.40;;;13.90;99.90;;;;;;5094435;28;20476;-71
2021/12/31 10:54:45;;;;;;;0.43;0.43;;;13.90;99.90;;;;;;5103658;28;20434;-71
2021/12/31 10:57:36;;;;;;;0.43;0.40;;;13.90;99.90;;;;;;5109606;28;20427;-72
2021/12/31 11:00:24;;;;;;;0.50;0.50;;;13.90;99.90;;;;;;5106555;28;20453;-71
2021/12/31 11:03:12;;;;;;;0.63;0.60;;;14.10;99.90;;;;;;5089128;28;20466;-71
2021/12/31 11:05:59;;;;;;;0.40;0.40;;;14.00;99.90;;;;;;5086365;28;20428;-71
2021/12/31 11:08:49;;;;;;;0.40;0.40;;;14.00;99.90;;;;;;5088004;28;20465;-71
2021/12/31 11:11:36;;;;;;;0.70;0.70;;;14.00;99.90;;;;;;5085516;28;20431;-72
2021/12/31 11:14:24;;;;;;;0.40;0.40;;;14.00;99.90;;;;;;5089929;28;20443;-72
2021/12/31 11:17:11;;;;;;;0.40;0.40;;;14.00;99.90;;;;;;5086546;28;20454;-72
2021/12/31 11:20:00;;;;;;;0.40;0.40;;;14.00;99.90;;;;;;5077389;28;20572;-72
2021/12/31 11:22:47;;;;;;;0.40;0.40;;;14.00;99.90;;;;;;5075906;28;20426;-72
2021/12/31 11:25:35;;;;;;;0.40;0.40;;;14.10;99.90;;;;;;5074279;28;20471;-72
2021/12/31 11:28:30;;;;;;;0.40;0.40;;;14.10;99.90;;;;;;5074668;28;20427;-72
2021/12/31 11:31:25;;;;;;;0.40;0.40;;;14.10;99.90;;;;;;5072906;28;20854;-72
2021/12/31 11:34:14;;;;;;;1.13;1.13;;;14.10;99.90;;;;;;5073698;28;20435;-72
2021/12/31 11:37:03;;;;;;;0.40;0.40;;;14.00;99.90;;;;;;5073626;28;20504;-72
2021/12/31 11:39:49;;;;;;;0.40;0.40;;;14.00;99.90;;;;;;5072179;28;20428;-72
2021/12/31 11:43:16;;;;;;;0.40;0.40;;;13.90;99.90;;;;;;5072229;28;20480;-72
2021/12/31 11:46:32;;;;;;;0.40;0.40;;;13.90;99.90;;;;;;5074228;28;20514;-72
2021/12/31 11:49:21;;;;;;;0.50;0.50;;;13.90;99.90;;;;;;5073138;28;20427;-71
2021/12/31 11:52:13;;;;;;;0.73;0.73;;;13.90;99.90;;;;;;5073278;28;20431;-71
2021/12/31 11:55:20;;;;;;;0.40;0.40;;;14.00;99.90;;;;;;5072460;28;20439;-71
2021/12/31 11:58:37;;;;;;;0.40;0.40;;;14.00;99.90;;;;;;5073554;28;20520;-71
2021/12/31 12:01:39;;;;;;;0.57;0.57;;;14.00;99.90;;;;;;5074114;28;20430;-71
2021/12/31 12:04:28;;;;;;;0.40;0.40;;;13.90;99.90;;;;;;5072153;28;20467;-71
2021/12/31 12:07:35;;;;;;;0.40;0.40;;;14.00;99.90;;;;;;5072464;28;20432;-71
2021/12/31 12:10:27;;;;;;;0.40;0.40;;;13.90;99.90;;;;;;5072211;28;20430;-71
2021/12/31 12:13:21;;;;;;;0.70;0.70;;;14.00;99.90;;;;;;5071757;28;20423;-71
2021/12/31 12:16:08;;;;;;;0.90;0.50;;;14.00;99.90;;;;;;5071900;28;20438;-72
2021/12/31 12:18:56;;;;;;;0.40;0.40;;;14.00;99.90;;;;;;5071421;28;20481;-71
2021/12/31 12:21:43;;;;;;;0.40;0.40;;;14.00;99.90;;;;;;5071764;28;20518;-71
2021/12/31 12:24:33;;;;;;;0.40;0.40;;;14.20;99.90;;;;;;5078444;28;20463;-72
2021/12/31 12:27:23;;;;;;;0.40;0.40;;;14.10;99.90;;;;;;5088386;28;20469;-71
2021/12/31 12:30:12;;;;;;;2.63;0.80;;;14.10;99.90;;;;;;5084806;28;20427;-71
2021/12/31 12:33:16;;;;;;;0.40;0.40;;;14.10;99.90;;;;;;5087167;28;20438;-72
2021/12/31 12:36:03;;;;;;;2.20;0.70;;;14.10;99.90;;;;;;5087711;28;20522;-71
2021/12/31 12:39:01;;;;;;;0.40;0.40;;;14.10;99.90;;;;;;5075814;28;20435;-71
2021/12/31 12:41:51;;;;;;;0.50;0.50;;;14.10;99.90;;;;;;5077010;28;20423;-71
2021/12/31 12:44:39;;;;;;;0.50;0.50;;;14.10;99.90;;;;;;5081664;28;20463;-71
2021/12/31 12:47:26;;;;;;;0.40;0.40;;;14.20;99.90;;;;;;5077318;28;20594;-71
2021/12/31 12:50:13;;;;;;;0.50;0.50;;;14.20;99.90;;;;;;5075762;28;20426;-71
2021/12/31 12:53:00;;;;;;;0.40;0.40;;;14.20;99.90;;;;;;5075812;28;20476;-71
2021/12/31 12:55:47;;;;;;;0.40;0.40;;;14.20;99.90;;;;;;5075799;28;20969;-72
2021/12/31 12:58:38;;;;;;;0.40;0.40;;;14.30;99.90;;;;;;5075296;28;20419;-72
2021/12/31 13:01:33;;;;;;;1.77;0.50;;;14.30;99.90;;;;;;5086279;28;20418;-71
2021/12/31 13:04:25;;;;;;;0.40;0.40;;;14.30;99.90;;;;;;5095211;28;20481;-71
2021/12/31 13:07:12;;;;;;;0.87;0.60;;;14.30;99.90;;;;;;5096022;28;20934;-71
2021/12/31 13:10:05;;;;;;;0.57;0.40;;;14.30;99.90;;;;;;5105496;28;20418;-70
2021/12/31 13:12:53;;;;;;;0.40;0.40;;;14.30;99.90;;;;;;5098067;28;20515;-71
2021/12/31 13:15:41;;;;;;;0.57;0.50;;;14.40;99.90;;;;;;5093299;28;20508;-73
2021/12/31 13:18:31;;;;;;;0.40;0.40;;;14.40;99.90;;;;;;5096959;28;20422;-71
2021/12/31 13:21:22;;;;;;;0.40;0.40;;;14.40;99.90;;;;;;5095643;28;20425;-71
2021/12/31 13:24:18;;;;;;;0.40;0.40;;;14.40;99.90;;;;;;5095588;28;20891;-71
2021/12/31 13:27:08;;;;;;;0.40;0.40;;;14.30;99.90;;;;;;5095124;28;20422;-73
2021/12/31 13:30:06;;;;;;;0.40;0.40;;;14.30;99.90;;;;;;5094909;28;20480;-71
2021/12/31 13:32:54;;;;;;;4.57;0.60;;;14.30;99.90;;;;;;5095828;28;20418;-71
2021/12/31 13:35:41;;;;;;;0.47;0.47;;;14.30;99.90;;;;;;5095934;28;20419;-71
2021/12/31 13:38:28;;;;;;;2.10;1.93;;;14.30;99.90;;;;;;5094918;28;20429;-71
2021/12/31 13:41:21;;;;;;;0.40;0.40;;;14.40;99.90;;;;;;5096201;28;20661;-71
2021/12/31 13:44:07;;;;;;;0.40;0.40;;;14.30;99.90;;;;;;5095481;28;20462;-71
2021/12/31 13:47:04;;;;;;;0.50;0.50;;;14.30;99.90;;;;;;5095218;28;20434;-72
2021/12/31 13:49:55;;;;;;;0.40;0.40;;;14.20;99.90;;;;;;5095483;28;20431;-72
2021/12/31 13:52:46;;;;;;;0.60;0.60;;;14.20;99.90;;;;;;5095012;28;20435;-71
2021/12/31 13:55:35;;;;;;;0.40;0.40;;;14.20;99.90;;;;;;5094289;28;20442;-72
2021/12/31 13:58:27;;;;;;;0.40;0.40;;;14.20;99.90;;;;;;5094622;28;20427;-71
2021/12/31 14:01:14;;;;;;;0.40;0.40;;;14.20;99.90;;;;;;5086032;28;20428;-71
2021/12/31 14:04:10;;;;;;;0.40;0.40;;;14.20;99.90;;;;;;5073436;28;20263;-71
2021/12/31 14:07:15;;;;;;;0.40;0.40;;;14.20;99.90;;;;;;5074101;28;20428;-71
2021/12/31 14:10:06;;;;;;;1.07;1.07;;;14.20;99.90;;;;;;5074083;28;20423;-71
2021/12/31 14:12:56;;;;;;;0.40;0.40;;;14.20;99.90;;;;;;5075230;28;20431;-71
2021/12/31 14:15:43;;;;;;;0.40;0.40;;;14.20;99.90;;;;;;5074862;28;20419;-70
2021/12/31 14:18:30;;;;;;;0.70;0.70;;;14.20;99.90;;;;;;5073778;28;20442;-71
2021/12/31 14:21:17;;;;;;;0.40;0.40;;;14.20;99.90;;;;;;5074031;28;20943;-71
2021/12/31 14:24:06;;;;;;;0.40;0.40;;;14.20;99.90;;;;;;5074116;28;20459;-71
2021/12/31 14:26:54;;;;;;;0.60;0.50;;;14.20;99.90;;;;;;5074449;28;20426;-72
2021/12/31 14:29:41;;;;;;;0.40;0.40;;;14.20;99.90;;;;;;5073263;28;20441;-71
2021/12/31 14:32:28;;;;;;;0.70;0.70;;;14.20;99.90;;;;;;5074051;28;20434;-71
2021/12/31 14:35:20;;;;;;;0.70;0.60;;;14.20;99.90;;;;;;5074247;28;20521;-71
2021/12/31 14:38:10;;;;;;;0.50;0.47;;;14.20;99.90;;;;;;5074221;28;20506;-71
2021/12/31 14:41:13;;;;;;;0.40;0.40;;;14.20;99.90;;;;;;5074479;28;20952;-71